sensor_id;sensor_type;location;lat;lon;timestamp;P1;durP1;ratioP1;P2;durP2;ratioP2
46753;SDS011;32500;50.620;3.400;2023-04-01T00:01:37;72.72;;;49.28;;
46753;SDS011;32500;50.620;3.400;2023-04-01T00:04:03;72.25;;;49.63;;
46753;SDS011;32500;50.620;3.400;2023-04-01T00:06:29;72.50;;;49.22;;
46753;SDS011;32500;50.620;3.400;2023-04-01T00:08:55;71.18;;;49.15;;
46753;SDS011;32500;50.620;3.400;2023-04-01T00:11:21;70.40;;;49.25;;
46753;SDS011;32500;50.620;3.400;2023-04-01T00:13:47;70.60;;;48.80;;
46753;SDS011;32500;50.620;3.400;2023-04-01T00:16:13;69.57;;;49.15;;
46753;SDS011;32500;50.620;3.400;2023-04-01T00:18:39;70.63;;;49.45;;
46753;SDS011;32500;50.620;3.400;2023-04-01T00:21:05;71.45;;;49.72;;
46753;SDS011;32500;50.620;3.400;2023-04-01T00:23:31;70.78;;;49.00;;
46753;SDS011;32500;50.620;3.400;2023-04-01T00:26:01;72.47;;;49.40;;
46753;SDS011;32500;50.620;3.400;2023-04-01T00:28:28;71.15;;;49.42;;
46753;SDS011;32500;50.620;3.400;2023-04-01T00:30:54;72.78;;;49.38;;
46753;SDS011;32500;50.620;3.400;2023-04-01T00:33:20;70.78;;;49.35;;
46753;SDS011;32500;50.620;3.400;2023-04-01T00:35:45;72.95;;;49.45;;
46753;SDS011;32500;50.620;3.400;2023-04-01T00:38:11;70.90;;;49.10;;
46753;SDS011;32500;50.620;3.400;2023-04-01T00:40:40;71.53;;;49.30;;
46753;SDS011;32500;50.620;3.400;2023-04-01T00:43:17;71.07;;;49.30;;
46753;SDS011;32500;50.620;3.400;2023-04-01T00:45:45;71.60;;;49.20;;
46753;SDS011;32500;50.620;3.400;2023-04-01T00:50:42;70.30;;;49.25;;
46753;SDS011;32500;50.620;3.400;2023-04-01T00:53:20;70.57;;;49.33;;
46753;SDS011;32500;50.620;3.400;2023-04-01T00:55:49;70.80;;;49.22;;
46753;SDS011;32500;50.620;3.400;2023-04-01T00:58:25;70.18;;;49.45;;
46753;SDS011;32500;50.620;3.400;2023-04-01T01:00:52;69.50;;;48.97;;
46753;SDS011;32500;50.620;3.400;2023-04-01T01:03:18;69.15;;;49.17;;
46753;SDS011;32500;50.620;3.400;2023-04-01T01:05:55;69.00;;;49.05;;
46753;SDS011;32500;50.620;3.400;2023-04-01T01:11:30;69.43;;;48.95;;
46753;SDS011;32500;50.620;3.400;2023-04-01T01:14:12;68.68;;;48.85;;
46753;SDS011;32500;50.620;3.400;2023-04-01T01:16:42;68.78;;;48.65;;
46753;SDS011;32500;50.620;3.400;2023-04-01T01:27:09;69.47;;;48.80;;
46753;SDS011;32500;50.620;3.400;2023-04-01T01:37:50;69.63;;;49.35;;
46753;SDS011;32500;50.620;3.400;2023-04-01T01:40:22;68.97;;;49.05;;
46753;SDS011;32500;50.620;3.400;2023-04-01T01:42:52;68.90;;;49.30;;
46753;SDS011;32500;50.620;3.400;2023-04-01T01:45:21;69.63;;;49.15;;
46753;SDS011;32500;50.620;3.400;2023-04-01T01:47:49;71.10;;;49.17;;
46753;SDS011;32500;50.620;3.400;2023-04-01T01:50:16;70.68;;;49.10;;
46753;SDS011;32500;50.620;3.400;2023-04-01T01:52:43;69.68;;;48.90;;
46753;SDS011;32500;50.620;3.400;2023-04-01T01:58:13;69.88;;;48.90;;
46753;SDS011;32500;50.620;3.400;2023-04-01T02:00:55;68.78;;;48.72;;
46753;SDS011;32500;50.620;3.400;2023-04-01T02:03:26;70.05;;;48.97;;
46753;SDS011;32500;50.620;3.400;2023-04-01T02:05:56;70.40;;;49.22;;
46753;SDS011;32500;50.620;3.400;2023-04-01T02:08:32;69.53;;;49.15;;
46753;SDS011;32500;50.620;3.400;2023-04-01T02:11:05;71.22;;;49.25;;
46753;SDS011;32500;50.620;3.400;2023-04-01T02:13:34;68.85;;;49.20;;
46753;SDS011;32500;50.620;3.400;2023-04-01T02:16:02;69.32;;;49.25;;
46753;SDS011;32500;50.620;3.400;2023-04-01T02:18:33;69.07;;;48.65;;
46753;SDS011;32500;50.620;3.400;2023-04-01T02:21:02;69.75;;;48.95;;
46753;SDS011;32500;50.620;3.400;2023-04-01T02:23:29;70.85;;;49.03;;
46753;SDS011;32500;50.620;3.400;2023-04-01T02:25:59;69.97;;;48.92;;
46753;SDS011;32500;50.620;3.400;2023-04-01T02:28:25;70.75;;;49.13;;
46753;SDS011;32500;50.620;3.400;2023-04-01T02:30:52;70.20;;;49.05;;
46753;SDS011;32500;50.620;3.400;2023-04-01T02:33:19;69.78;;;49.05;;
46753;SDS011;32500;50.620;3.400;2023-04-01T02:35:45;69.43;;;49.28;;
46753;SDS011;32500;50.620;3.400;2023-04-01T02:38:12;70.25;;;49.35;;
46753;SDS011;32500;50.620;3.400;2023-04-01T02:40:56;69.28;;;49.38;;
46753;SDS011;32500;50.620;3.400;2023-04-01T02:43:26;69.43;;;49.17;;
46753;SDS011;32500;50.620;3.400;2023-04-01T02:45:52;68.80;;;49.03;;
46753;SDS011;32500;50.620;3.400;2023-04-01T02:48:18;70.65;;;49.45;;
46753;SDS011;32500;50.620;3.400;2023-04-01T02:50:44;69.38;;;49.58;;
46753;SDS011;32500;50.620;3.400;2023-04-01T02:53:10;69.88;;;49.55;;
46753;SDS011;32500;50.620;3.400;2023-04-01T02:55:36;69.53;;;49.17;;
46753;SDS011;32500;50.620;3.400;2023-04-01T02:58:01;69.18;;;49.15;;
46753;SDS011;32500;50.620;3.400;2023-04-01T03:00:27;70.03;;;49.58;;
46753;SDS011;32500;50.620;3.400;2023-04-01T03:02:53;69.63;;;49.67;;
46753;SDS011;32500;50.620;3.400;2023-04-01T03:05:19;70.15;;;49.65;;
46753;SDS011;32500;50.620;3.400;2023-04-01T03:07:46;69.68;;;49.55;;
46753;SDS011;32500;50.620;3.400;2023-04-01T03:10:11;70.25;;;49.50;;
46753;SDS011;32500;50.620;3.400;2023-04-01T03:12:38;69.63;;;49.47;;
46753;SDS011;32500;50.620;3.400;2023-04-01T03:15:04;70.60;;;50.05;;
46753;SDS011;32500;50.620;3.400;2023-04-01T03:17:30;68.78;;;49.35;;
46753;SDS011;32500;50.620;3.400;2023-04-01T03:19:55;69.80;;;49.10;;
46753;SDS011;32500;50.620;3.400;2023-04-01T03:22:21;69.55;;;49.33;;
46753;SDS011;32500;50.620;3.400;2023-04-01T03:24:47;70.97;;;49.78;;
46753;SDS011;32500;50.620;3.400;2023-04-01T03:27:14;69.55;;;49.42;;
46753;SDS011;32500;50.620;3.400;2023-04-01T03:29:40;69.72;;;49.50;;
46753;SDS011;32500;50.620;3.400;2023-04-01T03:32:06;68.72;;;49.13;;
46753;SDS011;32500;50.620;3.400;2023-04-01T03:34:31;69.50;;;49.75;;
46753;SDS011;32500;50.620;3.400;2023-04-01T03:36:57;70.22;;;49.75;;
46753;SDS011;32500;50.620;3.400;2023-04-01T03:39:23;70.40;;;49.88;;
46753;SDS011;32500;50.620;3.400;2023-04-01T03:41:48;69.72;;;49.75;;
46753;SDS011;32500;50.620;3.400;2023-04-01T03:44:14;69.93;;;49.80;;
46753;SDS011;32500;50.620;3.400;2023-04-01T03:46:40;68.95;;;49.72;;
46753;SDS011;32500;50.620;3.400;2023-04-01T03:49:06;68.93;;;49.38;;
46753;SDS011;32500;50.620;3.400;2023-04-01T03:51:40;70.63;;;50.20;;
46753;SDS011;32500;50.620;3.400;2023-04-01T03:54:06;70.88;;;49.83;;
46753;SDS011;32500;50.620;3.400;2023-04-01T03:56:32;70.18;;;50.15;;
46753;SDS011;32500;50.620;3.400;2023-04-01T03:58:58;69.72;;;49.85;;
46753;SDS011;32500;50.620;3.400;2023-04-01T04:01:28;71.32;;;49.67;;
46753;SDS011;32500;50.620;3.400;2023-04-01T04:03:54;71.70;;;50.28;;
46753;SDS011;32500;50.620;3.400;2023-04-01T04:06:21;70.75;;;49.85;;
46753;SDS011;32500;50.620;3.400;2023-04-01T04:08:48;70.30;;;50.30;;
46753;SDS011;32500;50.620;3.400;2023-04-01T04:11:14;71.68;;;50.40;;
46753;SDS011;32500;50.620;3.400;2023-04-01T04:13:40;71.10;;;50.08;;
46753;SDS011;32500;50.620;3.400;2023-04-01T04:16:06;70.30;;;49.95;;
46753;SDS011;32500;50.620;3.400;2023-04-01T04:18:33;69.93;;;49.85;;
46753;SDS011;32500;50.620;3.400;2023-04-01T04:20:59;69.55;;;50.00;;
46753;SDS011;32500;50.620;3.400;2023-04-01T04:23:25;72.00;;;49.97;;
46753;SDS011;32500;50.620;3.400;2023-04-01T04:25:57;69.63;;;49.95;;
46753;SDS011;32500;50.620;3.400;2023-04-01T04:28:31;69.63;;;50.00;;
46753;SDS011;32500;50.620;3.400;2023-04-01T04:30:57;70.78;;;50.15;;
46753;SDS011;32500;50.620;3.400;2023-04-01T04:33:23;70.43;;;49.92;;
46753;SDS011;32500;50.620;3.400;2023-04-01T04:35:50;69.05;;;49.70;;
46753;SDS011;32500;50.620;3.400;2023-04-01T04:38:16;69.45;;;50.22;;
46753;SDS011;32500;50.620;3.400;2023-04-01T04:40:42;70.82;;;49.88;;
46753;SDS011;32500;50.620;3.400;2023-04-01T04:43:11;68.75;;;49.78;;
46753;SDS011;32500;50.620;3.400;2023-04-01T04:45:39;69.18;;;49.78;;
46753;SDS011;32500;50.620;3.400;2023-04-01T04:48:06;69.90;;;50.47;;
46753;SDS011;32500;50.620;3.400;2023-04-01T04:50:33;70.03;;;49.95;;
46753;SDS011;32500;50.620;3.400;2023-04-01T04:52:58;70.53;;;50.30;;
46753;SDS011;32500;50.620;3.400;2023-04-01T04:55:24;69.90;;;49.75;;
46753;SDS011;32500;50.620;3.400;2023-04-01T04:57:50;69.75;;;50.38;;
46753;SDS011;32500;50.620;3.400;2023-04-01T05:00:15;69.57;;;49.80;;
46753;SDS011;32500;50.620;3.400;2023-04-01T05:02:41;69.50;;;50.03;;
46753;SDS011;32500;50.620;3.400;2023-04-01T05:05:07;69.53;;;49.85;;
46753;SDS011;32500;50.620;3.400;2023-04-01T05:07:33;70.32;;;49.95;;
46753;SDS011;32500;50.620;3.400;2023-04-01T05:09:59;70.38;;;50.25;;
46753;SDS011;32500;50.620;3.400;2023-04-01T05:12:25;68.93;;;49.85;;
46753;SDS011;32500;50.620;3.400;2023-04-01T05:14:50;69.90;;;49.85;;
46753;SDS011;32500;50.620;3.400;2023-04-01T05:17:16;69.35;;;49.55;;
46753;SDS011;32500;50.620;3.400;2023-04-01T05:19:41;70.22;;;50.05;;
46753;SDS011;32500;50.620;3.400;2023-04-01T05:22:07;69.80;;;49.92;;
46753;SDS011;32500;50.620;3.400;2023-04-01T05:24:33;69.28;;;49.70;;
46753;SDS011;32500;50.620;3.400;2023-04-01T05:26:59;69.78;;;49.95;;
46753;SDS011;32500;50.620;3.400;2023-04-01T05:29:25;69.13;;;49.60;;
46753;SDS011;32500;50.620;3.400;2023-04-01T05:31:51;68.32;;;49.35;;
46753;SDS011;32500;50.620;3.400;2023-04-01T05:34:17;70.10;;;49.67;;
46753;SDS011;32500;50.620;3.400;2023-04-01T05:36:43;68.57;;;49.50;;
46753;SDS011;32500;50.620;3.400;2023-04-01T05:39:09;69.15;;;50.08;;
46753;SDS011;32500;50.620;3.400;2023-04-01T05:41:35;69.07;;;49.97;;
46753;SDS011;32500;50.620;3.400;2023-04-01T05:44:02;69.80;;;49.53;;
46753;SDS011;32500;50.620;3.400;2023-04-01T05:46:28;68.28;;;49.53;;
46753;SDS011;32500;50.620;3.400;2023-04-01T05:48:54;71.65;;;49.60;;
46753;SDS011;32500;50.620;3.400;2023-04-01T05:51:19;68.68;;;49.75;;
46753;SDS011;32500;50.620;3.400;2023-04-01T05:53:45;68.55;;;49.53;;
46753;SDS011;32500;50.620;3.400;2023-04-01T05:56:11;69.57;;;49.63;;
46753;SDS011;32500;50.620;3.400;2023-04-01T05:58:37;68.22;;;49.47;;
46753;SDS011;32500;50.620;3.400;2023-04-01T06:01:03;69.20;;;49.38;;
46753;SDS011;32500;50.620;3.400;2023-04-01T06:03:33;68.40;;;49.35;;
46753;SDS011;32500;50.620;3.400;2023-04-01T06:05:59;68.78;;;49.40;;
46753;SDS011;32500;50.620;3.400;2023-04-01T06:08:26;68.88;;;49.55;;
46753;SDS011;32500;50.620;3.400;2023-04-01T06:26:46;70.50;;;49.63;;
46753;SDS011;32500;50.620;3.400;2023-04-01T06:35:41;68.50;;;49.40;;
46753;SDS011;32500;50.620;3.400;2023-04-01T06:52:58;70.93;;;49.65;;
46753;SDS011;32500;50.620;3.400;2023-04-01T06:58:02;70.95;;;49.75;;
46753;SDS011;32500;50.620;3.400;2023-04-01T07:00:40;72.13;;;49.78;;
46753;SDS011;32500;50.620;3.400;2023-04-01T07:03:20;70.22;;;49.75;;
46753;SDS011;32500;50.620;3.400;2023-04-01T07:05:47;72.75;;;49.70;;
46753;SDS011;32500;50.620;3.400;2023-04-01T07:08:18;71.03;;;49.22;;
46753;SDS011;32500;50.620;3.400;2023-04-01T07:13:25;69.88;;;49.53;;
46753;SDS011;32500;50.620;3.400;2023-04-01T07:18:45;69.53;;;49.45;;
46753;SDS011;32500;50.620;3.400;2023-04-01T07:21:28;72.57;;;49.72;;
46753;SDS011;32500;50.620;3.400;2023-04-01T07:24:10;71.85;;;49.67;;
46753;SDS011;32500;50.620;3.400;2023-04-01T07:26:42;70.45;;;49.63;;
46753;SDS011;32500;50.620;3.400;2023-04-01T07:29:12;70.13;;;49.55;;
46753;SDS011;32500;50.620;3.400;2023-04-01T07:31:49;68.60;;;49.88;;
46753;SDS011;32500;50.620;3.400;2023-04-01T07:35:07;70.20;;;49.35;;
46753;SDS011;32500;50.620;3.400;2023-04-01T07:42:53;69.57;;;49.97;;
46753;SDS011;32500;50.620;3.400;2023-04-01T07:55:41;68.97;;;49.88;;
46753;SDS011;32500;50.620;3.400;2023-04-01T07:58:36;67.95;;;49.58;;
46753;SDS011;32500;50.620;3.400;2023-04-01T08:01:13;68.95;;;49.50;;
46753;SDS011;32500;50.620;3.400;2023-04-01T08:09:40;70.57;;;49.83;;
46753;SDS011;32500;50.620;3.400;2023-04-01T08:21:02;68.65;;;49.58;;
46753;SDS011;32500;50.620;3.400;2023-04-01T08:23:35;69.18;;;49.67;;
